Time;durP1;ratioP1;P1;durP2;ratioP2;P2;SDS_P1;SDS_P2;PMS_P1;PMS_P2;Temp;Humidity;BMP_temperature;BMP_pressure;BME280_temperature;BME280_humidity;BME280_pressure;Samples;Min_cycle;Max_cycle;Signal;HPM_P1;HPM_P2
2021/12/03 00:01:41;;;;;;;2.53;2.42;;;;;;;-2.21;100.00;100706.25;4385192;32;20100;-69
2021/12/03 00:04:07;;;;;;;3.17;3.08;;;;;;;-2.26;100.00;100700.28;4378878;32;20150;-68
2021/12/03 00:06:35;;;;;;;2.50;2.40;;;;;;;-2.29;100.00;100695.13;4396782;32;20077;-68
2021/12/03 00:09:01;;;;;;;4.45;4.25;;;;;;;-2.32;100.00;100694.28;4377715;32;20123;-68
2021/12/03 00:11:27;;;;;;;2.55;2.45;;;;;;;-2.33;100.00;100692.56;4423201;32;20061;-68
2021/12/03 00:13:52;;;;;;;4.18;3.97;;;;;;;-3.67;100.00;100475.00;4378009;32;20124;-68
2021/12/03 00:16:17;;;;;;;4.03;3.83;;;;;;;-2.32;100.00;100696.84;4381703;32;20595;-68
2021/12/03 00:18:43;;;;;;;2.20;2.10;;;;;;;-3.75;100.00;100451.03;4382734;32;20080;-69
2021/12/03 00:21:11;;;;;;;2.30;2.20;;;;;;;-2.33;100.00;100692.56;4376117;32;20693;-68
2021/12/03 00:23:36;;;;;;;2.10;2.00;;;;;;;-2.31;100.00;100701.97;4378224;32;20211;-68
2021/12/03 00:26:02;;;;;;;3.47;3.37;;;;;;;-2.29;100.00;100699.41;4389404;32;20481;-69
2021/12/03 00:28:28;;;;;;;2.60;2.50;;;;;;;-2.29;100.00;100697.69;4376926;32;20533;-69
2021/12/03 00:30:54;;;;;;;4.25;4.05;;;;;;;-2.28;100.00;100688.28;4417304;32;20095;-68
2021/12/03 00:33:19;;;;;;;2.30;2.20;;;;;;;-2.25;100.00;100688.28;4395913;32;20076;-72
2021/12/03 00:35:45;;;;;;;2.83;2.70;;;;;;;-3.71;100.00;100485.25;4398367;32;20053;-69
2021/12/03 00:38:10;;;;;;;2.30;2.20;;;;;;;-2.19;100.00;100700.28;4395713;32;20556;-69
2021/12/03 00:40:38;;;;;;;3.20;2.95;;;;;;;-2.18;100.00;100696.88;4403182;32;20516;-69
2021/12/03 00:43:04;;;;;;;2.60;2.50;;;;;;;-2.17;100.00;100701.97;4402361;32;20181;-69
2021/12/03 00:45:31;;;;;;;2.62;2.53;;;;;;;-2.30;100.00;100688.28;4398214;32;20072;-68
2021/12/03 00:47:56;;;;;;;3.17;2.85;;;;;;;-2.20;100.00;100709.72;4411853;32;20263;-68
2021/12/03 00:50:22;;;;;;;2.67;2.58;;;;;;;-2.15;100.00;100712.28;4394230;32;20079;-68
2021/12/03 00:52:47;;;;;;;3.37;3.28;;;;;;;-2.11;100.00;100724.28;4398593;32;20088;-69
2021/12/03 00:55:13;;;;;;;2.20;2.10;;;;;;;-2.14;100.00;100712.28;4398631;32;20057;-68
2021/12/03 00:57:38;;;;;;;2.17;2.08;;;;;;;-2.28;100.00;100696.00;4392229;32;20068;-68
2021/12/03 01:00:09;;;;;;;3.15;3.05;;;;;;;-2.11;100.00;100722.53;4418408;32;20088;-68
2021/12/03 01:02:34;;;;;;;2.50;2.40;;;;;;;-2.21;100.00;100682.28;4398867;32;20190;-68
2021/12/03 01:05:00;;;;;;;4.15;3.95;;;;;;;-2.09;100.00;100695.13;4409480;32;20073;-68
2021/12/03 01:07:25;;;;;;;2.50;2.40;;;;;;;-3.37;100.00;100470.75;4399653;32;20077;-68
2021/12/03 01:09:50;;;;;;;4.25;4.05;;;;;;;-1.92;100.00;100715.69;4396974;32;20931;-69
2021/12/03 01:12:16;;;;;;;2.60;2.50;;;;;;;-2.02;100.00;100706.28;4404732;32;20064;-68
2021/12/03 01:14:41;;;;;;;2.40;2.30;;;;;;;-1.92;100.00;100725.13;4399958;32;20613;-68
2021/12/03 01:17:06;;;;;;;2.70;2.60;;;;;;;-3.56;100.00;100443.41;4398328;32;20107;-69
2021/12/03 01:19:32;;;;;;;2.20;2.10;;;;;;;-1.83;100.00;100750.84;4396002;32;20697;-69
2021/12/03 01:21:57;;;;;;;4.00;3.80;;;;;;;-1.98;100.00;100720.84;4401241;32;20080;-68
2021/12/03 01:24:23;;;;;;;2.60;2.50;;;;;;;-1.86;100.00;100733.69;4399960;32;20064;-69
2021/12/03 01:26:53;;;;;;;3.30;3.20;;;;;;;-1.85;100.00;100732.81;4397449;32;20080;-69
2021/12/03 01:29:19;;;;;;;2.40;2.30;;;;;;;-1.99;100.00;100724.25;4396305;32;20157;-69
2021/12/03 01:31:44;;;;;;;2.78;2.60;;;;;;;-3.38;100.00;100522.94;4416783;32;20084;-69
2021/12/03 01:34:09;;;;;;;2.30;2.20;;;;;;;-1.79;100.00;100737.12;4407080;32;20108;-69
2021/12/03 01:36:35;;;;;;;2.37;2.28;;;;;;;-1.75;100.00;100727.69;4406658;32;20547;-68
2021/12/03 01:39:00;;;;;;;4.20;4.00;;;;;;;-1.73;100.00;100731.97;4399619;32;20084;-68
2021/12/03 01:41:27;;;;;;;2.50;2.40;;;;;;;-1.70;100.00;100744.84;4383251;32;20098;-68
2021/12/03 01:43:58;;;;;;;4.37;4.18;;;;;;;-1.64;100.00;100742.25;4383670;32;20077;-69
2021/12/03 01:46:24;;;;;;;2.53;2.42;;;;;;;-3.20;100.00;100468.22;4388507;32;20652;-69
2021/12/03 01:48:49;;;;;;;4.43;4.22;;;;;;;-1.44;100.00;100731.91;4394974;32;20069;-68
2021/12/03 01:51:15;;;;;;;2.35;2.25;;;;;;;-1.33;100.00;100728.44;4401124;32;20077;-69
2021/12/03 01:53:40;;;;;;;2.45;2.35;;;;;;;-1.47;100.00;100697.59;4382539;32;20069;-69
2021/12/03 01:56:08;;;;;;;2.70;2.60;;;;;;;-1.18;100.00;100735.25;4394145;32;20548;-69
2021/12/03 01:58:34;;;;;;;2.50;2.40;;;;;;;-1.55;100.00;100669.31;4386328;32;20100;-68
2021/12/03 02:01:01;;;;;;;5.15;4.70;;;;;;;-1.10;100.00;100739.53;4395906;32;20617;-68
2021/12/03 02:03:28;;;;;;;2.42;2.33;;;;;;;-1.08;100.00;100731.81;4393493;32;20188;-69
2021/12/03 02:05:53;;;;;;;4.65;4.37;;;;;;;-0.95;100.00;100754.06;4409384;32;20107;-69
2021/12/03 02:08:19;;;;;;;2.42;2.33;;;;;;;-0.87;100.00;100744.59;4396414;32;20057;-68
2021/12/03 02:10:44;;;;;;;2.60;2.50;;;;;;;-0.88;100.00;100742.88;4411523;32;20426;-69
2021/12/03 02:13:11;;;;;;;2.60;2.50;;;;;;;-1.25;100.00;100667.50;4396318;32;22106;-69
2021/12/03 02:15:36;;;;;;;2.30;2.20;;;;;;;-0.67;100.00;100744.50;4404823;32;20071;-69
2021/12/03 02:18:02;;;;;;;4.25;3.95;;;;;;;-0.71;100.00;100732.47;4407019;32;20092;-69
2021/12/03 02:20:27;;;;;;;2.60;2.50;;;;;;;-0.56;100.00;100751.31;4415302;32;20072;-69
2021/12/03 02:22:52;;;;;;;4.60;4.20;;;;;;;-0.78;100.00;100702.47;4406286;32;20080;-69
2021/12/03 02:25:20;;;;;;;2.40;2.30;;;;;;;-0.53;100.00;100741.84;4394947;32;20077;-68
2021/12/03 02:27:47;;;;;;;2.72;2.62;;;;;;;-0.43;100.00;100740.91;4393297;32;20089;-69
2021/12/03 02:30:13;;;;;;;3.03;2.75;;;;;;;-0.39;100.00;100735.75;4383569;32;20744;-68
2021/12/03 02:32:38;;;;;;;2.70;2.60;;;;;;;-0.38;100.00;100738.31;4391760;32;20087;-70
2021/12/03 02:35:04;;;;;;;4.03;3.85;;;;;;;-0.43;100.00;100733.19;4404306;32;20065;-69
2021/12/03 02:37:29;;;;;;;2.58;2.47;;;;;;;-0.32;100.00;100745.13;4404373;32;21129;-69
2021/12/03 02:39:54;;;;;;;4.72;4.30;;;;;;;-0.28;100.00;100749.41;4383993;32;20064;-69
2021/12/03 02:42:20;;;;;;;2.70;2.60;;;;;;;-0.28;100.00;100752.00;4382802;32;20073;-68
2021/12/03 02:44:45;;;;;;;2.60;2.50;;;;;;;-0.55;100.00;100715.22;4394123;32;20083;-68
2021/12/03 02:47:11;;;;;;;2.60;2.50;;;;;;;-0.26;100.00;100740.81;4386246;32;20073;-68
2021/12/03 02:49:40;;;;;;;2.70;2.60;;;;;;;-0.24;100.00;100740.78;4388424;32;20563;-68
2021/12/03 02:52:05;;;;;;;2.83;2.72;;;;;;;-0.22;100.00;100736.47;4392562;32;20427;-68
2021/12/03 02:54:31;;;;;;;2.67;2.58;;;;;;;-1.48;100.00;100526.03;4400606;32;20061;-69
2021/12/03 02:56:56;;;;;;;4.12;3.92;;;;;;;-0.30;100.00;100720.19;4381784;32;20080;-68
2021/12/03 02:59:21;;;;;;;2.50;2.40;;;;;;;-0.44;100.00;100685.06;4386372;32;20163;-69
2021/12/03 03:01:47;;;;;;;3.85;3.65;;;;;;;-0.11;100.00;100737.25;4394378;32;20544;-68
2021/12/03 03:04:12;;;;;;;2.80;2.70;;;;;;;-0.10;100.00;100740.69;4390474;32;20073;-69
2021/12/03 03:06:38;;;;;;;2.80;2.70;;;;;;;-0.26;100.00;100711.56;4419063;32;20115;-68
2021/12/03 03:09:07;;;;;;;4.15;3.95;;;;;;;-0.03;100.00;100742.34;4380075;32;20085;-69
2021/12/03 03:11:33;;;;;;;2.50;2.40;;;;;;;-0.14;100.00;100719.25;4396861;32;20089;-68
2021/12/03 03:13:58;;;;;;;4.05;3.85;;;;;;;-0.09;100.00;100722.63;4397602;32;20072;-69
2021/12/03 03:16:24;;;;;;;2.60;2.50;;;;;;;-1.57;100.00;100478.03;4382264;32;20255;-69
2021/12/03 03:18:49;;;;;;;4.43;4.22;;;;;;;0.06;100.00;100746.59;4395626;32;20095;-69
2021/12/03 03:21:14;;;;;;;3.00;2.90;;;;;;;0.07;100.00;100751.72;4381240;32;20080;-68
2021/12/03 03:23:40;;;;;;;3.05;2.92;;;;;;;0.10;100.00;100748.25;4373512;32;20061;-68
2021/12/03 03:26:05;;;;;;;2.40;2.30;;;;;;;0.11;100.00;100748.25;4396550;32;20077;-69
2021/12/03 03:28:30;;;;;;;2.60;2.50;;;;;;;-0.10;100.00;100710.59;4375858;32;20066;-68
2021/12/03 03:30:57;;;;;;;4.97;4.78;;;;;;;0.00;100.00;100726.88;4401657;32;20085;-68
2021/12/03 03:33:22;;;;;;;2.60;2.50;;;;;;;0.15;100.00;100751.69;4381433;32;20083;-68
2021/12/03 03:35:47;;;;;;;3.62;3.47;;;;;;;0.16;100.00;100743.03;4382429;32;20508;-68
2021/12/03 03:38:13;;;;;;;2.40;2.30;;;;;;;0.15;100.00;100743.94;4398498;32;20061;-69
2021/12/03 03:40:42;;;;;;;2.70;2.60;;;;;;;0.17;100.00;100737.03;4379137;32;20172;-69
2021/12/03 03:43:07;;;;;;;2.72;2.62;;;;;;;0.17;100.00;100726.72;4378018;32;20087;-68
2021/12/03 03:45:33;;;;;;;2.50;2.40;;;;;;;0.06;100.00;100716.50;4384300;32;20057;-69
2021/12/03 03:47:58;;;;;;;4.35;4.15;;;;;;;0.23;100.00;100733.56;4403934;32;20512;-69
2021/12/03 03:50:24;;;;;;;2.55;2.45;;;;;;;0.24;100.00;100725.81;4382047;32;20077;-69
2021/12/03 03:52:50;;;;;;;3.37;3.28;;;;;;;0.27;100.00;100719.75;4373143;32;20082;-68
2021/12/03 03:55:16;;;;;;;2.62;2.53;;;;;;;-0.05;100.00;100661.53;4378160;32;20146;-69
2021/12/03 03:57:42;;;;;;;2.80;2.70;;;;;;;0.33;100.00;100719.69;4376724;32;20470;-68
2021/12/03 04:00:09;;;;;;;2.60;2.50;;;;;;;0.35;100.00;100733.44;4377163;32;20103;-68
2021/12/03 04:02:35;;;;;;;3.17;3.08;;;;;;;0.37;100.00;100724.78;4387403;32;20128;-68
2021/12/03 04:05:00;;;;;;;5.07;4.60;;;;;;;0.38;100.00;100713.59;4406234;32;20327;-68
2021/12/03 04:07:25;;;;;;;2.70;2.60;;;;;;;0.40;100.00;100716.16;4380730;32;20200;-68
2021/12/03 04:09:51;;;;;;;4.25;4.05;;;;;;;0.40;100.00;100721.31;4403508;32;20076;-68
2021/12/03 04:12:16;;;;;;;2.60;2.50;;;;;;;0.24;100.00;100688.78;4378331;32;20808;-68
2021/12/03 04:14:42;;;;;;;2.70;2.60;;;;;;;0.44;100.00;100722.16;4394904;32;20069;-68
2021/12/03 04:17:07;;;;;;;2.55;2.45;;;;;;;0.43;100.00;100710.12;4389039;32;20316;-68
2021/12/03 04:19:32;;;;;;;2.55;2.45;;;;;;;0.45;100.00;100718.72;4377964;32;20087;-68
2021/12/03 04:21:58;;;;;;;4.25;4.05;;;;;;;0.34;100.00;100691.28;4379087;32;20552;-68
2021/12/03 04:24:23;;;;;;;2.70;2.60;;;;;;;0.41;100.00;100711.87;4381352;32;20073;-67
2021/12/03 04:26:50;;;;;;;3.97;3.83;;;;;;;0.50;100.00;100701.44;4381691;32;20065;-68
2021/12/03 04:29:16;;;;;;;3.55;3.35;;;;;;;0.34;100.00;100674.91;4389825;32;20066;-68
2021/12/03 04:31:41;;;;;;;5.57;3.05;;;;;;;0.36;100.00;100671.47;4378654;32;20075;-68
2021/12/03 04:34:07;;;;;;;2.60;2.50;;;;;;;0.45;100.00;100682.56;4403169;32;20069;-68
2021/12/03 04:36:33;;;;;;;2.60;2.50;;;;;;;0.18;100.00;100638.09;4388894;32;20472;-67
2021/12/03 04:38:58;;;;;;;4.65;4.45;;;;;;;0.37;100.00;100665.41;4401709;32;20092;-68
2021/12/03 04:41:23;;;;;;;2.70;2.60;;;;;;;0.55;100.00;100692.75;4393551;32;20684;-67
2021/12/03 04:43:49;;;;;;;4.28;4.07;;;;;;;0.56;100.00;100699.66;4392224;32;20060;-66
2021/12/03 04:46:14;;;;;;;2.72;2.62;;;;;;;0.61;100.00;100689.25;4405190;32;20076;-68
2021/12/03 04:48:40;;;;;;;3.75;3.50;;;;;;;0.58;100.00;100685.00;4416046;32;20076;-68
2021/12/03 04:51:05;;;;;;;3.20;3.10;;;;;;;0.56;100.00;100675.53;4395442;32;20225;-68
2021/12/03 04:53:31;;;;;;;2.70;2.60;;;;;;;0.65;100.00;100690.09;4387193;32;20121;-69
2021/12/03 04:55:56;;;;;;;4.97;4.78;;;;;;;0.28;100.00;100644.00;4403080;32;20477;-68
2021/12/03 04:58:21;;;;;;;2.47;2.37;;;;;;;0.73;100.00;100693.44;4395604;32;20077;-67
2021/12/03 05:00:54;;;;;;;3.00;2.90;;;;;;;0.81;100.00;100690.78;4392587;32;20714;-66
2021/12/03 05:03:23;;;;;;;2.75;2.65;;;;;;;0.92;100.00;100683.72;4395692;32;20163;-67
2021/12/03 05:05:56;;;;;;;4.05;3.87;;;;;;;0.92;100.00;100687.19;4390553;32;20558;-67
2021/12/03 05:08:23;;;;;;;2.70;2.60;;;;;;;0.94;100.00;100695.75;4393306;32;20448;-67
2021/12/03 05:10:48;;;;;;;3.10;3.00;;;;;;;0.87;100.00;100673.44;4405410;32;20466;-68
2021/12/03 05:13:21;;;;;;;2.60;2.50;;;;;;;0.98;100.00;100694.84;4390754;32;20583;-67
2021/12/03 05:15:47;;;;;;;3.12;3.03;;;;;;;0.91;100.00;100684.59;4418624;32;20250;-68
2021/12/03 05:18:15;;;;;;;2.70;2.60;;;;;;;0.30;100.00;100588.06;4386150;32;20080;-66
2021/12/03 05:20:40;;;;;;;2.90;2.80;;;;;;;0.93;100.00;100696.62;4390668;32;20065;-67
2021/12/03 05:23:06;;;;;;;2.92;2.83;;;;;;;0.92;100.00;100694.94;4391009;32;21082;-67
2021/12/03 05:25:32;;;;;;;2.50;2.40;;;;;;;0.93;100.00;100698.37;4387744;32;20343;-69
2021/12/03 05:27:57;;;;;;;4.35;4.15;;;;;;;0.92;100.00;100704.38;4384923;32;20093;-67
2021/12/03 05:30:23;;;;;;;2.60;2.50;;;;;;;0.93;100.00;100700.94;4393137;32;20065;-67
2021/12/03 05:32:48;;;;;;;3.97;3.80;;;;;;;0.92;100.00;100697.50;4390585;32;20096;-66
2021/12/03 05:35:14;;;;;;;2.70;2.60;;;;;;;0.92;100.00;100702.69;4410029;32;20065;-67
2021/12/03 05:37:39;;;;;;;2.92;2.80;;;;;;;0.92;100.00;100700.09;4416473;32;20606;-69
2021/12/03 05:40:06;;;;;;;2.70;2.60;;;;;;;0.98;100.00;100701.72;4406855;32;20242;-67
2021/12/03 05:42:31;;;;;;;2.80;2.70;;;;;;;0.99;100.00;100700.88;4413118;32;20103;-67
2021/12/03 05:44:58;;;;;;;4.75;4.55;;;;;;;0.49;100.00;100604.19;4401845;32;20092;-67
2021/12/03 05:47:23;;;;;;;2.60;2.50;;;;;;;1.05;100.00;100698.19;4409554;32;20121;-67
2021/12/03 05:49:48;;;;;;;4.30;4.10;;;;;;;1.03;100.00;100688.78;4408646;32;20073;-67
2021/12/03 05:52:14;;;;;;;2.83;2.72;;;;;;;1.01;100.00;100687.94;4395279;32;20590;-67
2021/12/03 05:54:39;;;;;;;2.70;2.60;;;;;;;1.14;100.00;100699.78;4409005;32;20073;-68
2021/12/03 05:57:05;;;;;;;3.40;3.30;;;;;;;1.08;100.00;100695.56;4405283;32;20084;-68
2021/12/03 05:59:30;;;;;;;2.90;2.80;;;;;;;1.16;100.00;100704.09;4406493;32;20076;-67
2021/12/03 06:01:55;;;;;;;4.07;3.87;;;;;;;1.17;100.00;100703.19;4394442;32;20068;-67
2021/12/03 06:04:21;;;;;;;3.30;3.20;;;;;;;1.22;100.00;100702.28;4404486;32;20104;-68
2021/12/03 06:06:46;;;;;;;2.92;2.83;;;;;;;1.31;100.00;100703.00;4409520;32;20087;-67
2021/12/03 06:09:11;;;;;;;3.20;3.10;;;;;;;1.32;100.00;100703.88;4406957;32;20130;-68
2021/12/03 06:11:37;;;;;;;2.70;2.60;;;;;;;1.33;100.00;100695.25;4406483;32;20069;-72
2021/12/03 06:14:02;;;;;;;3.90;3.75;;;;;;;1.36;100.00;100706.41;4404644;32;20402;-67
2021/12/03 06:16:28;;;;;;;2.90;2.80;;;;;;;1.37;100.00;100707.25;4397045;32;20069;-67
2021/12/03 06:18:53;;;;;;;3.50;3.40;;;;;;;1.37;100.00;100708.09;4407568;32;20666;-69
2021/12/03 06:21:19;;;;;;;2.62;2.53;;;;;;;1.38;100.00;100707.25;4393256;32;20076;-69
2021/12/03 06:23:44;;;;;;;2.50;2.40;;;;;;;-0.02;100.00;100468.03;4406758;32;20557;-68
2021/12/03 06:26:10;;;;;;;3.47;3.30;;;;;;;1.40;100.00;100709.78;4394675;32;20631;-67
2021/12/03 06:28:36;;;;;;;3.08;2.97;;;;;;;1.33;100.00;100693.50;4407932;32;20068;-67
2021/12/03 06:31:02;;;;;;;4.28;4.07;;;;;;;1.41;100.00;100711.50;4398250;32;20104;-67
2021/12/03 06:33:27;;;;;;;3.50;3.30;;;;;;;0.07;100.00;100493.72;4395115;32;20103;-68
2021/12/03 06:35:53;;;;;;;4.00;3.83;;;;;;;1.42;100.00;100710.59;4408908;32;20069;-67
2021/12/03 06:38:18;;;;;;;2.53;2.42;;;;;;;1.44;100.00;100713.19;4398271;32;20092;-68
2021/12/03 06:40:45;;;;;;;2.80;2.70;;;;;;;1.44;100.00;100702.84;4406150;32;20140;-68
2021/12/03 06:43:10;;;;;;;3.00;2.90;;;;;;;1.47;100.00;100702.81;4399009;32;20195;-67
2021/12/03 06:45:36;;;;;;;2.60;2.50;;;;;;;1.47;100.00;100708.81;4406576;32;20894;-67
2021/12/03 06:48:01;;;;;;;4.35;4.15;;;;;;;1.49;100.00;100712.25;4416279;32;20091;-68
2021/12/03 06:50:28;;;;;;;3.17;3.08;;;;;;;1.49;100.00;100703.62;4396270;32;20939;-67
2021/12/03 06:53:01;;;;;;;3.67;3.58;;;;;;;1.53;100.00;100711.31;4401616;32;20076;-67
2021/12/03 06:55:27;;;;;;;3.00;2.90;;;;;;;1.53;100.00;100707.87;4395056;32;20885;-68
2021/12/03 06:57:52;;;;;;;4.07;3.87;;;;;;;1.48;100.00;100687.25;4407598;32;20081;-68
2021/12/03 07:00:17;;;;;;;2.70;2.60;;;;;;;1.09;100.00;100616.31;4393634;32;20076;-68
2021/12/03 07:02:43;;;;;;;2.60;2.50;;;;;;;1.59;100.00;100700.88;4408985;32;20591;-68
2021/12/03 07:05:08;;;;;;;3.00;2.90;;;;;;;1.64;100.00;100702.53;4393727;32;20076;-68
2021/12/03 07:07:34;;;;;;;2.60;2.50;;;;;;;1.24;100.00;100639.34;4411298;32;20283;-68
2021/12/03 07:10:00;;;;;;;4.30;4.10;;;;;;;1.69;100.00;100706.78;4391151;32;20091;-68
2021/12/03 07:12:26;;;;;;;2.80;2.70;;;;;;;1.79;100.00;100703.16;4404633;32;20234;-68
2021/12/03 07:14:51;;;;;;;4.18;3.97;;;;;;;1.77;100.00;100701.47;4408456;32;20657;-68
2021/12/03 07:17:16;;;;;;;2.50;2.40;;;;;;;1.75;100.00;100692.88;4407734;32;20493;-68
2021/12/03 07:19:42;;;;;;;2.70;2.60;;;;;;;1.71;100.00;100696.41;4406000;32;20068;-68
2021/12/03 07:22:07;;;;;;;2.60;2.50;;;;;;;1.68;100.00;100689.53;4392701;32;20077;-68
2021/12/03 07:24:34;;;;;;;2.72;2.62;;;;;;;1.64;100.00;100689.59;4393679;32;20581;-70
2021/12/03 07:26:59;;;;;;;4.15;3.95;;;;;;;1.42;100.00;100658.91;4420332;32;20646;-70
2021/12/03 07:29:24;;;;;;;2.62;2.53;;;;;;;1.57;100.00;100687.13;4406488;32;20162;-69
2021/12/03 07:31:52;;;;;;;4.03;3.83;;;;;;;1.59;100.00;100687.94;4408928;32;20072;-70
2021/12/03 07:34:17;;;;;;;2.70;2.60;;;;;;;1.61;100.00;100693.09;4397353;32;20112;-70
2021/12/03 07:36:43;;;;;;;2.62;2.53;;;;;;;1.22;100.00;100624.72;4403802;32;20090;-70
2021/12/03 07:39:08;;;;;;;2.83;2.72;;;;;;;1.55;100.00;100685.44;4393914;32;20615;-70
2021/12/03 07:41:36;;;;;;;2.60;2.50;;;;;;;1.36;100.00;100662.44;4406460;32;20831;-70
2021/12/03 07:44:02;;;;;;;4.37;4.18;;;;;;;1.54;100.00;100691.47;4387647;32;20131;-70
2021/12/03 07:46:27;;;;;;;3.20;3.05;;;;;;;1.52;100.00;100699.25;4409216;32;20076;-70
2021/12/03 07:48:53;;;;;;;4.35;4.15;;;;;;;1.51;100.00;100687.22;4405656;32;20472;-70
2021/12/03 07:51:18;;;;;;;2.62;2.53;;;;;;;1.56;100.00;100698.34;4397043;32;20595;-70
2021/12/03 07:53:43;;;;;;;3.50;3.20;;;;;;;0.13;100.00;100465.25;4406235;32;20137;-69
2021/12/03 07:56:09;;;;;;;2.72;2.62;;;;;;;1.66;100.00;100686.12;4390653;32;20099;-69
2021/12/03 07:58:35;;;;;;;2.72;2.62;;;;;;;1.50;99.53;100663.94;4407782;32;20080;-69
2021/12/03 08:01:00;;;;;;;4.47;4.28;;;;;;;1.67;97.92;100682.66;4408997;32;20094;-69
2021/12/03 08:03:25;;;;;;;2.70;2.60;;;;;;;1.59;97.58;100689.69;4407355;32;20071;-70
2021/12/03 08:05:51;;;;;;;4.22;4.03;;;;;;;1.64;98.20;100692.19;4406425;32;20092;-70
2021/12/03 08:08:23;;;;;;;2.60;2.50;;;;;;;1.66;97.31;100691.28;4392349;32;20199;-70
2021/12/03 08:10:50;;;;;;;3.53;3.37;;;;;;;1.70;97.16;100720.56;4408377;32;20085;-70
2021/12/03 08:13:15;;;;;;;5.10;4.90;;;;;;;1.73;97.34;100692.91;4401774;32;20239;-70
2021/12/03 08:15:41;;;;;;;2.70;2.60;;;;;;;1.73;97.26;100702.41;4392819;32;20687;-70
2021/12/03 08:18:06;;;;;;;2.62;2.53;;;;;;;1.69;97.30;100693.00;4405205;32;20157;-70
2021/12/03 08:20:32;;;;;;;3.00;2.87;;;;;;;1.75;97.00;100708.41;4405717;32;20484;-70
2021/12/03 08:22:57;;;;;;;4.53;4.32;;;;;;;1.79;96.76;100710.06;4405076;32;20057;-70
2021/12/03 08:25:22;;;;;;;2.60;2.50;;;;;;;1.82;95.61;100704.84;4404125;32;20216;-69
2021/12/03 08:27:49;;;;;;;3.72;3.58;;;;;;;1.11;95.11;100580.97;4408753;32;20072;-70
2021/12/03 08:30:15;;;;;;;2.62;2.53;;;;;;;1.88;94.32;100709.91;4407230;32;20115;-69
2021/12/03 08:32:42;;;;;;;2.90;2.80;;;;;;;1.95;93.16;100715.84;4391440;32;20634;-69
2021/12/03 08:35:08;;;;;;;2.83;2.72;;;;;;;1.94;92.69;100717.56;4409900;32;20118;-69
2021/12/03 08:37:33;;;;;;;2.87;2.78;;;;;;;1.99;91.53;100709.75;4391626;32;20135;-69
2021/12/03 08:39:58;;;;;;;4.35;4.15;;;;;;;2.10;90.52;100717.31;4406262;32;20088;-69
2021/12/03 08:42:24;;;;;;;2.90;2.80;;;;;;;2.10;90.36;100718.16;4394576;32;20606;-69
2021/12/03 08:44:50;;;;;;;3.62;3.47;;;;;;;2.05;90.49;100688.09;4398653;32;20057;-69
2021/12/03 08:47:16;;;;;;;3.17;3.00;;;;;;;2.13;90.00;100694.00;4398769;32;20072;-70
2021/12/03 08:49:49;;;;;;;2.60;2.50;;;;;;;2.12;89.83;100682.75;4405177;32;21040;-69
2021/12/03 08:57:14;;;;;;;2.80;2.70;;;;;;;2.19;90.36;100680.94;4389638;32;20114;-74
2021/12/03 08:59:39;;;;;;;2.80;2.70;;;;;;;2.22;90.05;100686.03;4395296;32;20662;-75
2021/12/03 09:02:05;;;;;;;3.33;3.22;;;;;;;0.90;89.48;100465.88;4390258;32;20570;-73
2021/12/03 09:04:30;;;;;;;4.05;3.67;;;;;;;2.40;88.99;100690.87;4404041;32;20593;-73
2021/12/03 09:06:57;;;;;;;4.43;4.22;;;;;;;2.33;88.86;100673.75;4402560;32;20088;-74
2021/12/03 09:09:23;;;;;;;2.97;2.87;;;;;;;2.55;88.70;100694.09;4402592;32;20627;-74
2021/12/03 09:11:48;;;;;;;3.03;2.92;;;;;;;2.60;88.60;100693.09;4392152;32;20085;-74
2021/12/03 09:14:23;;;;;;;4.95;4.75;;;;;;;2.68;87.97;100690.34;4408803;32;20087;-74
2021/12/03 09:16:56;;;;;;;2.80;2.70;;;;;;;2.17;87.82;100597.25;4411811;32;20073;-73
2021/12/03 09:19:27;;;;;;;;;;;;;;;2.76;87.48;100692.78;4398352;32;21034;-74
2021/12/03 09:21:52;;;;;;;2.92;2.83;;;;;;;2.76;86.71;100691.06;4410977;32;20052;-74
2021/12/03 09:24:22;;;;;;;2.80;2.70;;;;;;;1.62;86.81;100484.44;4398454;32;20077;-73
2021/12/03 09:26:47;;;;;;;2.90;2.80;;;;;;;2.32;86.54;100593.50;4398673;32;20095;-74
2021/12/03 09:29:16;;;;;;;2.83;2.72;;;;;;;2.73;86.23;100651.41;4396843;32;20077;-75
2021/12/03 09:31:42;;;;;;;2.83;2.72;;;;;;;1.98;86.14;100529.44;4396971;32;20070;-76
2021/12/03 09:34:14;;;;;;;3.30;3.20;;;;;;;2.96;86.32;100679.44;4372431;32;20096;-74
2021/12/03 09:36:41;;;;;;;3.00;2.90;;;;;;;3.04;86.54;100677.53;4386928;32;20068;-72
2021/12/03 09:39:14;;;;;;;3.62;3.53;;;;;;;3.07;85.49;100674.03;4381107;32;20688;-72
2021/12/03 09:41:40;;;;;;;3.20;3.10;;;;;;;2.36;83.09;100561.47;4407079;32;20065;-74
2021/12/03 09:44:05;;;;;;;3.50;3.40;;;;;;;2.48;84.16;100557.78;4376557;32;20456;-73
2021/12/03 09:46:31;;;;;;;3.15;3.05;;;;;;;3.26;84.02;100661.50;4402310;32;20091;-73
2021/12/03 09:51:32;;;;;;;3.10;3.00;;;;;;;3.33;82.90;100658.75;4406018;32;20106;-72
2021/12/03 09:56:31;;;;;;;2.90;2.80;;;;;;;3.24;83.08;100645.12;4403291;32;20076;-71
2021/12/03 10:01:46;;;;;;;2.90;2.80;;;;;;;3.25;82.76;100637.31;4403365;32;20087;-72
2021/12/03 10:15:13;;;;;;;4.05;3.90;;;;;;;3.57;81.06;100649.53;4394819;32;20732;-71
2021/12/03 10:39:54;;;;;;;2.80;2.70;;;;;;;3.70;77.61;100592.13;4409066;32;20065;-75
2021/12/03 10:59:14;;;;;;;3.47;3.37;;;;;;;3.84;77.18;100610.78;4402495;32;20143;-72
2021/12/03 11:06:47;;;;;;;3.10;3.00;;;;;;;1.86;77.76;100247.66;4408709;32;20178;-73
2021/12/03 11:30:07;;;;;;;4.28;4.07;;;;;;;4.02;76.77;100528.13;4406065;32;20060;-72
2021/12/03 11:44:27;;;;;;;3.20;3.10;;;;;;;3.87;75.95;100491.31;4401312;32;20095;-72
2021/12/03 13:02:44;;;;;;;3.20;3.10;;;;;;;4.00;75.06;100274.53;4414079;32;20080;-74
2021/12/03 14:56:13;;;;;;;2.90;2.80;;;;;;;3.10;75.80;100127.75;4415468;32;20480;-76
2021/12/03 14:58:49;;;;;;;2.90;2.80;;;;;;;4.02;75.62;100269.31;4397959;32;20126;-76
2021/12/03 15:01:27;;;;;;;2.97;2.87;;;;;;;3.95;76.22;100273.03;4408508;32;20102;-76
2021/12/03 15:04:26;;;;;;;4.37;4.18;;;;;;;3.01;76.42;100122.84;4399594;32;20071;-76
2021/12/03 15:07:21;;;;;;;4.12;3.95;;;;;;;3.56;77.11;100226.63;4413512;32;20053;-76
2021/12/03 15:09:48;;;;;;;3.17;3.08;;;;;;;3.87;76.90;100286.22;4418755;32;20433;-76
2021/12/03 15:12:49;;;;;;;3.08;2.97;;;;;;;3.91;77.51;100269.66;4402103;32;20315;-76
2021/12/03 15:35:56;;;;;;;3.20;3.10;;;;;;;3.02;83.07;100178.97;4415085;32;20095;-75
2021/12/03 15:52:16;;;;;;;2.78;2.67;;;;;;;3.35;85.46;100210.84;4429805;32;20605;-73
2021/12/03 16:08:04;;;;;;;4.18;3.97;;;;;;;3.28;86.86;100198.94;4419974;32;20080;-73
2021/12/03 16:10:42;;;;;;;3.10;3.00;;;;;;;3.28;87.09;100196.34;4384830;32;20689;-73
2021/12/03 16:18:43;;;;;;;3.00;2.90;;;;;;;3.12;87.66;100180.41;4405802;32;20524;-73
2021/12/03 16:21:35;;;;;;;4.05;3.87;;;;;;;3.22;87.70;100204.31;4385711;32;20877;-73
2021/12/03 16:46:10;;;;;;;3.10;3.00;;;;;;;3.33;86.76;100184.09;4385418;32;20150;-73
2021/12/03 16:51:33;;;;;;;3.10;3.00;;;;;;;3.40;86.05;100175.22;4416962;32;20466;-73
2021/12/03 16:56:51;;;;;;;4.28;4.07;;;;;;;3.08;84.83;100095.00;4418660;32;20807;-74
2021/12/03 16:59:18;;;;;;;2.90;2.80;;;;;;;3.49;84.70;100168.91;4380638;32;20064;-73
2021/12/03 17:04:39;;;;;;;2.80;2.70;;;;;;;3.58;83.51;100158.22;4393578;32;20081;-72
2021/12/03 17:07:50;;;;;;;4.05;3.87;;;;;;;3.63;83.89;100159.81;4389397;32;20073;-73
2021/12/03 17:10:23;;;;;;;3.42;3.33;;;;;;;3.25;84.04;100091.84;4407211;32;20447;-73
2021/12/03 17:12:56;;;;;;;3.97;3.80;;;;;;;3.63;83.85;100154.63;4312025;32;20122;-73
2021/12/03 17:15:52;;;;;;;3.20;3.10;;;;;;;3.33;83.71;100116.66;4396998;32;20081;-73
2021/12/03 17:29:10;;;;;;;3.00;2.90;;;;;;;2.42;85.78;99952.78;4406889;32;20547;-73
2021/12/03 17:48:41;;;;;;;4.62;4.43;;;;;;;2.48;90.91;99996.59;4419628;32;20576;-72
2021/12/03 18:01:04;;;;;;;3.30;3.20;;;;;;;3.32;94.96;100145.25;4404147;32;20068;-73
2021/12/03 18:03:45;;;;;;;3.83;3.70;;;;;;;3.29;95.36;100127.19;4396604;32;20073;-72
2021/12/03 18:17:17;;;;;;;3.10;3.00;;;;;;;3.05;98.98;100103.72;4395292;32;20087;-72
2021/12/03 18:47:12;;;;;;;3.25;3.15;;;;;;;2.47;100.00;99968.19;4397152;32;20123;-73
2021/12/03 18:55:15;;;;;;;2.90;2.80;;;;;;;2.91;100.00;100030.72;4417159;32;20483;-73
2021/12/03 18:57:44;;;;;;;3.00;2.90;;;;;;;2.86;100.00;100020.50;4391472;32;20535;-72